Time;durP1;ratioP1;P1;durP2;ratioP2;P2;SDS_P1;SDS_P2;PMS_P1;PMS_P2;Temp;Humidity;BMP_temperature;BMP_pressure;BME280_temperature;BME280_humidity;BME280_pressure;Samples;Min_cycle;Max_cycle;Signal;HPM_P1;HPM_P2
2023/09/28 00:00:37;;;;;;;;;;;16.70;71.80;;;;;;3982415;29;20237;-92
2023/09/28 00:02:38;;;;;;;;;;;16.70;71.70;;;;;;3968196;29;19932;-93
2023/09/28 00:04:57;;;;;;;;;;;16.70;71.60;;;;;;3971200;29;20076;-91
2023/09/28 00:07:23;;;;;;;;;;;16.60;72.40;;;;;;3999154;29;19924;-91
2023/09/28 00:09:40;;;;;;;;;;;16.80;71.70;;;;;;4017455;29;19922;-91
2023/09/28 00:11:52;;;;;;;;;;;;;;;;;;;;;
2023/09/28 00:16:57;;;;;;;;;;;16.80;71.80;;;;;;4173437;22;19929;-85
2023/09/28 00:21:20;;;;;;;;;;;16.80;71.40;;;;;;4525531;22;19924;-85
2023/09/28 00:23:21;;;;;;;;;;;16.80;71.30;;;;;;4186345;28;19967;-85
2023/09/28 00:25:42;;;;;;;;;;;16.80;71.20;;;;;;4187106;28;19916;-85
2023/09/28 00:28:02;;;;;;;;;;;16.80;71.30;;;;;;4185995;28;20294;-85
2023/09/28 00:30:24;;;;;;;;;;;16.80;71.30;;;;;;4184050;28;20346;-85
2023/09/28 00:32:45;;;;;;;;;;;16.80;71.40;;;;;;4180252;28;20527;-85
2023/09/28 00:35:06;;;;;;;;;;;16.90;71.50;;;;;;4184458;28;20338;-85
2023/09/28 00:37:33;;;;;;;;;;;16.80;71.70;;;;;;4186463;28;20390;-86
2023/09/28 00:39:55;;;;;;;;;;;16.80;71.70;;;;;;4184985;28;20015;-85
2023/09/28 00:42:16;;;;;;;;;;;16.80;71.50;;;;;;4186408;28;20752;-86
2023/09/28 00:44:37;;;;;;;;;;;16.90;71.90;;;;;;4181318;28;20290;-85
2023/09/28 00:47:07;;;;;;;;;;;16.80;71.70;;;;;;4172153;28;21569;-85
2023/09/28 00:49:28;;;;;;;;;;;16.80;71.40;;;;;;4182673;28;20330;-86
2023/09/28 00:51:48;;;;;;;;;;;16.80;71.40;;;;;;4170534;28;20322;-85
2023/09/28 00:53:50;;;;;;;;;;;16.80;71.40;;;;;;4169119;28;19964;-85
2023/09/28 00:55:53;;;;;;;;;;;16.80;71.40;;;;;;4186265;28;19963;-85
2023/09/28 00:57:57;;;;;;;;;;;16.80;71.40;;;;;;4187759;28;19912;-85
2023/09/28 01:02:56;;;;;;;;;;;16.80;71.50;;;;;;4186625;28;19919;-85
2023/09/28 01:04:57;;;;;;;;;;;16.80;72.20;;;;;;4155545;28;19925;-85
2023/09/28 01:07:07;;;;;;;;;;;16.90;71.50;;;;;;4187116;28;21606;-85
2023/09/28 01:09:09;;;;;;;;;;;16.80;71.50;;;;;;4187409;28;20326;-86
2023/09/28 01:11:28;;;;;;;;;;;16.80;71.60;;;;;;4168686;28;19917;-85
2023/09/28 01:13:50;;;;;;;;;;;16.80;71.50;;;;;;4188937;28;20289;-84
2023/09/28 01:15:51;;;;;;;;;;;16.80;71.70;;;;;;4172597;28;19912;-85
2023/09/28 01:17:52;;;;;;;;;;;16.80;71.50;;;;;;4189695;28;20001;-85
2023/09/28 01:19:53;;;;;;;;;;;16.80;71.60;;;;;;4190008;28;19912;-85
2023/09/28 01:21:54;;;;;;;;;;;16.90;71.50;;;;;;4190374;28;19931;-85
2023/09/28 01:23:57;;;;;;;;;;;16.90;71.50;;;;;;4173390;28;20368;-85
2023/09/28 01:25:57;;;;;;;;;;;16.80;71.60;;;;;;4171226;28;20732;-85
2023/09/28 01:28:35;;;;;;;;;;;16.90;72.10;;;;;;4190688;28;20007;-86
2023/09/28 01:33:42;;;;;;;;;;;16.90;71.70;;;;;;4190803;28;20017;-86
2023/09/28 01:36:14;;;;;;;;;;;16.80;71.70;;;;;;4264922;22;20356;-93
2023/09/28 01:39:12;;;;;;;;;;;16.90;71.60;;;;;;4156649;28;19944;-92
2023/09/28 01:42:00;;;;;;;;;;;16.90;71.60;;;;;;4185288;28;19942;-92
2023/09/28 01:47:52;;;;;;;;;;;16.90;71.60;;;;;;4126225;28;19978;-90
2023/09/28 01:50:16;;;;;;;;;;;16.90;71.60;;;;;;4073709;29;19928;-92
2023/09/28 01:52:50;;;;;;;;;;;;;;;;;;;;;
2023/09/28 01:55:11;;;;;;;;;;;16.90;71.60;;;;;;4080702;28;19926;-92
2023/09/28 01:58:19;;;;;;;;;;;16.90;71.70;;;;;;4065424;29;19923;-91
2023/09/28 02:03:50;;;;;;;;;;;17.00;71.70;;;;;;4026923;29;19916;-92
2023/09/28 02:06:35;;;;;;;;;;;;;;;;;;;;;
2023/09/28 02:09:00;;;;;;;;;;;17.00;71.80;;;;;;3985040;29;19921;-91
2023/09/28 02:14:52;;;;;;;;;;;16.90;71.50;;;;;;4183688;22;20402;-85
2023/09/28 02:17:24;;;;;;;;;;;17.00;71.60;;;;;;4171764;28;20436;-85
2023/09/28 02:19:45;;;;;;;;;;;17.00;71.50;;;;;;4159377;28;19959;-85
2023/09/28 02:22:05;;;;;;;;;;;17.00;71.60;;;;;;4144542;28;19917;-86
2023/09/28 02:24:20;;;;;;;;;;;17.10;71.60;;;;;;4126684;28;20279;-86
2023/09/28 02:26:41;;;;;;;;;;;17.00;71.50;;;;;;4156480;28;19921;-85
2023/09/28 02:29:02;;;;;;;;;;;17.10;71.40;;;;;;4155216;28;19963;-85
2023/09/28 02:31:22;;;;;;;;;;;17.00;71.40;;;;;;4143162;28;20079;-85
2023/09/28 02:36:49;;;;;;;;;;;17.00;71.30;;;;;;4094284;28;19982;-86
2023/09/28 02:39:09;;;;;;;;;;;17.00;71.30;;;;;;4138220;28;19917;-86
2023/09/28 02:41:30;;;;;;;;;;;17.00;71.90;;;;;;4144626;28;19943;-86
2023/09/28 02:43:59;;;;;;;;;;;17.00;71.60;;;;;;4157355;28;19943;-86
2023/09/28 02:46:25;;;;;;;;;;;17.00;71.50;;;;;;4155670;28;19936;-85
2023/09/28 02:48:27;;;;;;;;;;;17.00;71.60;;;;;;4155799;28;19943;-86
2023/09/28 02:50:48;;;;;;;;;;;17.00;71.60;;;;;;4136732;28;19917;-85
2023/09/28 02:53:10;;;;;;;;;;;17.00;71.50;;;;;;4156684;28;20004;-86
2023/09/28 02:55:12;;;;;;;;;;;16.90;71.40;;;;;;4156439;28;19972;-86
2023/09/28 02:57:13;;;;;;;;;;;16.90;71.40;;;;;;4152769;28;20025;-86
2023/09/28 03:02:01;;;;;;;;;;;16.90;71.40;;;;;;4153423;28;20361;-86
2023/09/28 03:04:02;;;;;;;;;;;16.90;71.50;;;;;;4159043;28;19917;-85
2023/09/28 03:06:15;;;;;;;;;;;16.90;71.50;;;;;;4154749;28;19966;-85
2023/09/28 03:08:49;;;;;;;;;;;;;;;;;;;;;
2023/09/28 03:10:43;;;;;;;;;;;16.90;71.50;;;;;;4334430;22;19929;-85
2023/09/28 03:13:11;;;;;;;;;;;16.90;71.50;;;;;;4156037;28;19917;-86
2023/09/28 03:15:12;;;;;;;;;;;16.90;71.40;;;;;;4138587;28;20312;-85
2023/09/28 03:17:34;;;;;;;;;;;16.90;71.50;;;;;;4174201;28;19920;-85
2023/09/28 03:22:47;;;;;;;;;;;16.80;71.30;;;;;;4151759;28;20418;-85
2023/09/28 03:25:14;;;;;;;;;;;16.90;71.40;;;;;;4161787;28;19978;-86
2023/09/28 03:27:34;;;;;;;;;;;16.80;71.30;;;;;;4168905;28;20430;-86
2023/09/28 03:29:58;;;;;;;;;;;16.80;71.40;;;;;;4161400;28;19979;-85
2023/09/28 03:32:18;;;;;;;;;;;16.80;71.40;;;;;;4137611;28;21149;-86
2023/09/28 03:34:39;;;;;;;;;;;16.80;71.50;;;;;;4153158;28;19917;-85
2023/09/28 03:37:00;;;;;;;;;;;16.80;71.40;;;;;;4153617;28;19972;-86
2023/09/28 03:39:23;;;;;;;;;;;16.80;71.50;;;;;;4143765;28;19921;-86
2023/09/28 03:41:39;;;;;;;;;;;16.80;71.40;;;;;;4139081;28;20004;-85
2023/09/28 03:43:59;;;;;;;;;;;16.80;71.40;;;;;;4157100;28;21225;-88
2023/09/28 03:46:20;;;;;;;;;;;16.80;71.50;;;;;;4152899;28;19917;-87
2023/09/28 03:48:41;;;;;;;;;;;16.70;71.30;;;;;;4152705;28;19920;-86
2023/09/28 03:51:01;;;;;;;;;;;16.70;71.40;;;;;;4155808;28;19925;-86
2023/09/28 03:53:22;;;;;;;;;;;16.70;71.40;;;;;;4154411;28;19921;-86
2023/09/28 03:55:46;;;;;;;;;;;16.70;72.20;;;;;;4152339;28;19920;-86
2023/09/28 03:58:06;;;;;;;;;;;16.70;71.50;;;;;;4153449;28;19963;-86
2023/09/28 04:00:17;;;;;;;;;;;16.80;71.60;;;;;;4141014;28;19920;-85
2023/09/28 04:02:38;;;;;;;;;;;16.70;71.80;;;;;;4141505;28;19921;-86
2023/09/28 04:04:58;;;;;;;;;;;16.80;71.80;;;;;;4157863;28;19921;-86
2023/09/28 04:07:19;;;;;;;;;;;16.70;71.70;;;;;;4150961;28;19913;-86
2023/09/28 04:09:39;;;;;;;;;;;16.70;71.70;;;;;;4155649;28;19917;-85
2023/09/28 04:12:00;;;;;;;;;;;16.70;71.70;;;;;;4156246;28;20101;-86
2023/09/28 04:14:22;;;;;;;;;;;16.70;71.80;;;;;;4157166;28;19961;-85
2023/09/28 04:16:42;;;;;;;;;;;16.70;71.80;;;;;;4153750;28;19921;-85
2023/09/28 04:19:03;;;;;;;;;;;16.70;71.80;;;;;;4140001;28;19949;-85
2023/09/28 04:21:24;;;;;;;;;;;16.70;71.80;;;;;;4155321;28;19925;-86
2023/09/28 04:23:44;;;;;;;;;;;16.70;71.90;;;;;;4152096;28;19921;-85
2023/09/28 04:25:45;;;;;;;;;;;16.70;72.10;;;;;;4154207;28;19923;-85
2023/09/28 04:27:47;;;;;;;;;;;16.70;72.10;;;;;;4138176;28;20299;-85
2023/09/28 04:29:48;;;;;;;;;;;16.70;72.10;;;;;;4153012;28;19933;-85
2023/09/28 04:31:50;;;;;;;;;;;16.60;72.20;;;;;;4135339;28;20307;-86
2023/09/28 04:33:56;;;;;;;;;;;16.70;72.10;;;;;;4142571;28;19917;-86
2023/09/28 04:35:57;;;;;;;;;;;16.70;72.10;;;;;;4138960;28;20008;-85
2023/09/28 04:37:57;;;;;;;;;;;16.70;72.20;;;;;;4172768;28;20301;-85
2023/09/28 04:39:58;;;;;;;;;;;16.60;72.10;;;;;;4162902;28;19913;-85
2023/09/28 04:41:59;;;;;;;;;;;16.60;72.10;;;;;;4162407;28;20401;-88
2023/09/28 04:43:59;;;;;;;;;;;16.60;72.10;;;;;;4155975;28;19913;-85
2023/09/28 04:46:05;;;;;;;;;;;16.70;72.10;;;;;;4139681;28;19917;-85
2023/09/28 04:48:06;;;;;;;;;;;16.60;72.10;;;;;;4124555;28;20287;-85
2023/09/28 04:50:26;;;;;;;;;;;16.60;72.20;;;;;;4153473;28;19913;-85
2023/09/28 04:52:47;;;;;;;;;;;16.60;72.10;;;;;;4152804;28;19917;-86
2023/09/28 04:55:08;;;;;;;;;;;16.60;72.10;;;;;;4139588;28;19922;-87
2023/09/28 04:57:31;;;;;;;;;;;16.70;72.10;;;;;;4151228;28;20375;-86
2023/09/28 04:59:53;;;;;;;;;;;16.70;72.10;;;;;;4153966;28;19940;-86
2023/09/28 05:02:14;;;;;;;;;;;16.70;72.20;;;;;;4157251;28;20011;-86
2023/09/28 05:04:16;;;;;;;;;;;16.70;72.20;;;;;;4151351;28;20021;-86
2023/09/28 05:06:16;;;;;;;;;;;16.70;72.30;;;;;;4138631;28;20383;-86
2023/09/28 05:08:17;;;;;;;;;;;16.70;72.30;;;;;;4156289;28;20282;-86
2023/09/28 05:10:37;;;;;;;;;;;16.70;72.40;;;;;;4155144;28;20268;-86
2023/09/28 05:12:58;;;;;;;;;;;16.70;72.70;;;;;;4153682;28;20538;-86
2023/09/28 05:15:19;;;;;;;;;;;16.70;72.40;;;;;;4150105;28;20016;-86
2023/09/28 05:17:40;;;;;;;;;;;16.70;72.40;;;;;;4155392;28;19976;-86
2023/09/28 05:20:00;;;;;;;;;;;16.70;73.10;;;;;;4151759;28;19921;-86
2023/09/28 05:22:21;;;;;;;;;;;16.70;72.50;;;;;;4138825;28;19918;-86
2023/09/28 05:24:41;;;;;;;;;;;16.70;72.60;;;;;;4155957;28;19917;-86
2023/09/28 05:27:02;;;;;;;;;;;16.70;72.50;;;;;;4151671;28;19968;-86
2023/09/28 05:29:23;;;;;;;;;;;16.60;72.60;;;;;;4136953;28;19921;-86
2023/09/28 05:31:43;;;;;;;;;;;16.60;72.60;;;;;;4154003;28;19917;-86
2023/09/28 05:34:04;;;;;;;;;;;16.70;72.60;;;;;;4142548;28;19914;-87
2023/09/28 05:36:24;;;;;;;;;;;16.70;72.70;;;;;;4151197;28;19921;-87
2023/09/28 05:38:45;;;;;;;;;;;16.80;72.80;;;;;;4152886;28;19944;-87
2023/09/28 05:41:06;;;;;;;;;;;16.70;73.70;;;;;;4152544;28;19965;-87
2023/09/28 05:43:07;;;;;;;;;;;16.80;73.10;;;;;;4135714;28;20415;-87
2023/09/28 05:45:07;;;;;;;;;;;16.70;72.80;;;;;;4135519;28;20382;-87
2023/09/28 05:47:08;;;;;;;;;;;16.70;73.30;;;;;;4136102;28;20370;-86
2023/09/28 05:49:09;;;;;;;;;;;16.70;73.30;;;;;;4133345;28;21047;-86
2023/09/28 05:51:09;;;;;;;;;;;16.70;73.40;;;;;;4154714;28;19913;-86
2023/09/28 05:53:10;;;;;;;;;;;16.70;73.30;;;;;;4122139;28;20423;-87
2023/09/28 05:55:10;;;;;;;;;;;16.70;73.30;;;;;;4152753;28;20328;-87
2023/09/28 05:57:12;;;;;;;;;;;16.70;73.20;;;;;;4157643;28;20379;-87
2023/09/28 05:59:12;;;;;;;;;;;16.70;73.10;;;;;;4142189;28;19953;-86
2023/09/28 06:01:15;;;;;;;;;;;16.70;73.10;;;;;;4156730;28;19940;-87
2023/09/28 06:03:16;;;;;;;;;;;16.70;73.10;;;;;;4125083;28;20398;-86
2023/09/28 06:05:17;;;;;;;;;;;16.70;73.10;;;;;;4154571;28;19914;-87
2023/09/28 06:07:23;;;;;;;;;;;16.80;73.30;;;;;;4125006;28;20307;-87
2023/09/28 06:09:24;;;;;;;;;;;16.80;73.20;;;;;;4157349;28;19917;-87
2023/09/28 06:11:25;;;;;;;;;;;16.80;73.30;;;;;;4155105;28;19928;-87
2023/09/28 06:13:25;;;;;;;;;;;16.90;73.20;;;;;;4156501;28;21811;-87
2023/09/28 06:15:26;;;;;;;;;;;16.80;73.20;;;;;;4143359;28;20462;-87
2023/09/28 06:17:27;;;;;;;;;;;16.80;73.30;;;;;;4156531;28;19922;-87
2023/09/28 06:19:27;;;;;;;;;;;16.80;73.20;;;;;;4153024;28;20000;-87
2023/09/28 06:21:48;;;;;;;;;;;16.80;73.20;;;;;;4146140;28;19917;-87
2023/09/28 06:23:49;;;;;;;;;;;16.90;73.50;;;;;;4139177;28;20328;-87
2023/09/28 06:26:09;;;;;;;;;;;16.90;73.40;;;;;;4154888;28;20421;-87
2023/09/28 06:28:30;;;;;;;;;;;16.90;73.50;;;;;;4154790;28;20004;-86
2023/09/28 06:30:51;;;;;;;;;;;16.90;73.70;;;;;;4156548;28;20000;-86
2023/09/28 06:33:13;;;;;;;;;;;17.00;74.10;;;;;;4165070;28;19913;-86
2023/09/28 06:35:33;;;;;;;;;;;17.00;74.10;;;;;;4179136;28;19956;-87
2023/09/28 06:37:54;;;;;;;;;;;16.90;73.70;;;;;;4161093;28;19921;-87
2023/09/28 06:40:15;;;;;;;;;;;17.00;74.00;;;;;;4167079;28;19960;-87
2023/09/28 06:42:36;;;;;;;;;;;17.10;74.10;;;;;;4155173;28;19921;-87
2023/09/28 06:44:57;;;;;;;;;;;17.00;74.30;;;;;;4157740;28;19955;-87
2023/09/28 06:47:18;;;;;;;;;;;17.00;74.00;;;;;;4153362;28;19921;-86
2023/09/28 06:49:38;;;;;;;;;;;17.10;74.00;;;;;;4153685;28;19917;-87
2023/09/28 06:51:59;;;;;;;;;;;17.10;73.80;;;;;;4157140;28;20204;-87
2023/09/28 06:54:20;;;;;;;;;;;17.10;73.80;;;;;;4157287;28;19913;-87
2023/09/28 06:56:21;;;;;;;;;;;17.10;74.60;;;;;;4139258;28;19941;-86
2023/09/28 06:58:22;;;;;;;;;;;17.20;74.40;;;;;;4143345;28;20599;-87
2023/09/28 07:00:22;;;;;;;;;;;17.10;74.30;;;;;;4155877;28;20827;-86
2023/09/28 07:02:23;;;;;;;;;;;17.20;74.30;;;;;;4137301;28;19917;-87
2023/09/28 07:04:24;;;;;;;;;;;17.20;74.20;;;;;;4142970;28;20017;-86
2023/09/28 07:06:25;;;;;;;;;;;17.20;74.30;;;;;;4155566;28;19921;-86
2023/09/28 07:08:25;;;;;;;;;;;17.20;74.30;;;;;;4154107;28;19913;-87
2023/09/28 07:10:26;;;;;;;;;;;17.30;74.20;;;;;;4153518;28;19936;-86
2023/09/28 07:12:47;;;;;;;;;;;17.20;74.30;;;;;;4156676;28;19924;-87
2023/09/28 07:14:47;;;;;;;;;;;17.30;74.40;;;;;;4143209;28;19917;-88
2023/09/28 07:17:08;;;;;;;;;;;17.20;74.20;;;;;;4153222;28;19925;-87
2023/09/28 07:19:29;;;;;;;;;;;17.30;74.40;;;;;;4168944;28;19921;-87
2023/09/28 07:21:37;;;;;;;;;;;17.30;74.30;;;;;;4165839;28;19937;-87
2023/09/28 07:27:31;;;;;;;;;;;;;;;;;;;;;
2023/09/28 07:29:56;;;;;;;;;;;17.30;74.00;;;;;;4149285;28;19921;-87
2023/09/28 07:32:17;;;;;;;;;;;17.30;73.90;;;;;;4136853;28;19940;-87
2023/09/28 07:34:37;;;;;;;;;;;17.30;73.90;;;;;;4157236;28;20369;-87
2023/09/28 07:36:58;;;;;;;;;;;17.30;73.90;;;;;;4155425;28;20044;-87
2023/09/28 07:39:20;;;;;;;;;;;17.30;74.00;;;;;;4140126;28;19965;-87
2023/09/28 07:41:40;;;;;;;;;;;17.40;74.20;;;;;;4153817;28;19917;-87
2023/09/28 07:44:01;;;;;;;;;;;17.40;74.40;;;;;;4157577;28;19916;-87
2023/09/28 07:46:22;;;;;;;;;;;17.40;74.40;;;;;;4144685;28;19913;-88
2023/09/28 07:48:22;;;;;;;;;;;17.40;74.40;;;;;;4152139;28;19943;-87
2023/09/28 07:50:23;;;;;;;;;;;17.60;75.00;;;;;;4114785;28;19922;-87
2023/09/28 07:52:24;;;;;;;;;;;17.50;75.20;;;;;;4153379;28;19951;-86
2023/09/28 07:54:25;;;;;;;;;;;17.60;74.90;;;;;;4134515;28;19996;-86
2023/09/28 07:56:26;;;;;;;;;;;17.60;75.00;;;;;;4137372;28;19925;-88
2023/09/28 07:58:29;;;;;;;;;;;17.70;74.90;;;;;;4136373;28;19952;-86
2023/09/28 08:00:50;;;;;;;;;;;17.70;75.00;;;;;;4149010;28;19998;-87
2023/09/28 08:03:10;;;;;;;;;;;17.80;75.50;;;;;;4141614;28;19968;-88
2023/09/28 08:05:31;;;;;;;;;;;17.80;75.30;;;;;;4137416;28;19925;-87
2023/09/28 08:07:33;;;;;;;;;;;17.90;75.00;;;;;;4131571;28;19980;-87
2023/09/28 08:09:53;;;;;;;;;;;18.00;74.90;;;;;;4136516;28;19996;-88
2023/09/28 08:12:14;;;;;;;;;;;18.00;74.80;;;;;;4137606;28;19928;-87
2023/09/28 08:14:35;;;;;;;;;;;18.20;75.30;;;;;;4135699;28;20000;-87
2023/09/28 08:16:56;;;;;;;;;;;18.20;75.00;;;;;;4136314;28;19922;-88
2023/09/28 08:19:05;;;;;;;;;;;18.20;75.00;;;;;;4134854;28;19917;-89
2023/09/28 08:21:26;;;;;;;;;;;18.30;75.10;;;;;;4133164;28;19917;-87
2023/09/28 08:23:47;;;;;;;;;;;18.40;75.10;;;;;;4140815;28;20114;-88
2023/09/28 08:26:07;;;;;;;;;;;18.40;74.80;;;;;;4133021;28;19928;-88
2023/09/28 08:28:29;;;;;;;;;;;18.50;74.80;;;;;;4129548;28;19953;-88
2023/09/28 08:30:49;;;;;;;;;;;18.50;74.70;;;;;;4132539;28;19971;-86
2023/09/28 08:33:10;;;;;;;;;;;18.60;74.80;;;;;;4135594;28;19914;-88
2023/09/28 08:35:11;;;;;;;;;;;18.70;74.60;;;;;;4136655;28;19917;-88
2023/09/28 08:37:12;;;;;;;;;;;18.70;74.60;;;;;;4131475;28;19948;-88
2023/09/28 08:39:15;;;;;;;;;;;18.80;74.60;;;;;;4131802;28;19987;-90
2023/09/28 08:41:19;;;;;;;;;;;18.80;74.40;;;;;;4123172;28;19914;-89
2023/09/28 08:43:23;;;;;;;;;;;18.90;74.60;;;;;;4122900;28;19924;-88
2023/09/28 08:50:48;;;;;;;;;;;19.10;74.40;;;;;;4469458;22;19936;-89
2023/09/28 08:52:50;;;;;;;;;;;19.20;74.30;;;;;;4165909;28;20461;-86
2023/09/28 08:55:12;;;;;;;;;;;19.20;74.20;;;;;;4168072;28;19917;-88
2023/09/28 08:57:34;;;;;;;;;;;19.30;74.10;;;;;;4157003;28;19968;-89
2023/09/28 08:59:56;;;;;;;;;;;19.40;74.00;;;;;;4155438;28;19919;-88
2023/09/28 09:02:17;;;;;;;;;;;19.40;73.70;;;;;;4171477;28;20386;-87
2023/09/28 09:04:19;;;;;;;;;;;19.50;73.70;;;;;;4152015;28;19968;-87
2023/09/28 09:06:40;;;;;;;;;;;19.60;73.30;;;;;;4170948;28;19913;-88
2023/09/28 09:09:01;;;;;;;;;;;19.70;73.20;;;;;;4169681;28;20018;-87
2023/09/28 09:11:22;;;;;;;;;;;19.70;72.60;;;;;;4168010;28;19979;-87
2023/09/28 09:13:49;;;;;;;;;;;19.70;72.50;;;;;;4169877;28;19928;-87
2023/09/28 09:16:10;;;;;;;;;;;19.70;72.10;;;;;;4153570;28;20008;-86
2023/09/28 09:18:30;;;;;;;;;;;19.80;71.90;;;;;;4163523;28;20015;-87
2023/09/28 09:21:35;;;;;;;;;;;19.80;72.10;;;;;;4164469;28;19927;-87
2023/09/28 09:24:13;;;;;;;;;;;19.80;71.90;;;;;;4153089;28;19920;-87
2023/09/28 09:26:18;;;;;;;;;;;19.90;71.70;;;;;;4169459;28;19923;-87
2023/09/28 09:28:26;;;;;;;;;;;20.00;71.60;;;;;;4155760;28;19921;-88
2023/09/28 09:30:28;;;;;;;;;;;20.10;71.50;;;;;;4166573;28;19931;-88
2023/09/28 09:32:28;;;;;;;;;;;20.00;71.40;;;;;;4136459;28;19917;-88
2023/09/28 09:34:30;;;;;;;;;;;20.10;71.50;;;;;;4174905;28;20290;-87
2023/09/28 09:36:31;;;;;;;;;;;20.20;71.30;;;;;;4167060;28;19933;-87
2023/09/28 09:38:32;;;;;;;;;;;20.30;71.60;;;;;;4150790;28;19972;-86
2023/09/28 09:40:53;;;;;;;;;;;20.30;71.20;;;;;;4176901;28;19952;-88
2023/09/28 09:46:09;;;;;;;;;;;20.40;70.20;;;;;;4089486;28;19915;-88
2023/09/28 09:48:11;;;;;;;;;;;20.50;68.60;;;;;;4078414;29;19923;-88
2023/09/28 09:50:17;;;;;;;;;;;20.50;68.00;;;;;;4086588;28;19966;-86
2023/09/28 09:52:38;;;;;;;;;;;20.60;68.30;;;;;;4090672;28;19919;-87
2023/09/28 09:54:59;;;;;;;;;;;20.60;68.00;;;;;;4056030;29;19985;-88
2023/09/28 09:57:20;;;;;;;;;;;20.70;67.90;;;;;;4088972;28;19953;-88
2023/09/28 09:59:44;;;;;;;;;;;20.70;68.30;;;;;;4090391;28;19911;-87
2023/09/28 10:02:06;;;;;;;;;;;20.70;66.70;;;;;;4092819;28;19918;-88
2023/09/28 10:04:56;;;;;;;;;;;20.70;66.00;;;;;;4092521;28;19911;-86
2023/09/28 10:12:30;;;;;;;;;;;20.70;64.90;;;;;;4171542;28;19929;-88
2023/09/28 10:14:52;;;;;;;;;;;20.70;65.90;;;;;;4155718;28;19921;-87
2023/09/28 10:17:12;;;;;;;;;;;20.70;65.10;;;;;;4155296;28;19971;-88
2023/09/28 10:19:33;;;;;;;;;;;20.70;64.30;;;;;;4159177;28;19948;-88
2023/09/28 10:21:55;;;;;;;;;;;20.70;64.10;;;;;;4653227;22;20282;-88
2023/09/28 10:24:20;;;;;;;;;;;20.70;64.10;;;;;;4196017;28;19947;-88
2023/09/28 10:26:51;;;;;;;;;;;20.70;65.30;;;;;;4170500;28;19920;-87
2023/09/28 10:29:12;;;;;;;;;;;20.70;65.30;;;;;;4169300;28;19928;-87
2023/09/28 10:31:46;;;;;;;;;;;20.70;65.90;;;;;;4171416;28;19917;-87
2023/09/28 10:34:07;;;;;;;;;;;20.70;65.60;;;;;;4170861;28;19995;-86
2023/09/28 10:36:28;;;;;;;;;;;20.70;66.00;;;;;;4166127;28;19963;-88
2023/09/28 10:39:17;;;;;;;;;;;20.70;65.60;;;;;;4166211;28;19923;-87
2023/09/28 10:41:30;;;;;;;;;;;20.70;64.00;;;;;;4181585;28;19920;-87
2023/09/28 10:43:37;;;;;;;;;;;20.80;64.20;;;;;;4168584;28;19952;-85
2023/09/28 10:45:39;;;;;;;;;;;20.80;64.10;;;;;;4168392;28;19976;-86
2023/09/28 10:47:40;;;;;;;;;;;20.80;64.40;;;;;;4161864;28;19932;-86
2023/09/28 10:49:41;;;;;;;;;;;20.80;64.70;;;;;;4166262;28;20386;-85
2023/09/28 10:51:42;;;;;;;;;;;20.90;64.40;;;;;;4162890;28;19928;-88
2023/09/28 10:53:43;;;;;;;;;;;20.90;63.20;;;;;;4165008;28;20346;-85
2023/09/28 10:55:44;;;;;;;;;;;20.90;63.80;;;;;;4172698;28;19955;-87
2023/09/28 10:57:44;;;;;;;;;;;20.90;64.20;;;;;;4152039;28;19975;-86
2023/09/28 10:59:45;;;;;;;;;;;20.90;63.10;;;;;;4170866;28;19913;-86
2023/09/28 11:01:47;;;;;;;;;;;21.00;63.80;;;;;;4167936;28;20370;-86
2023/09/28 11:03:50;;;;;;;;;;;21.00;62.30;;;;;;4153919;28;19917;-86
2023/09/28 11:05:58;;;;;;;;;;;21.00;62.40;;;;;;4167484;28;19944;-86
2023/09/28 11:08:31;;;;;;;;;;;21.00;62.40;;;;;;4168565;28;19920;-86
2023/09/28 11:11:10;;;;;;;;;;;21.00;62.30;;;;;;4183248;28;19920;-87
2023/09/28 11:13:53;;;;;;;;;;;20.90;63.20;;;;;;4169353;28;19916;-87
2023/09/28 11:16:16;;;;;;;;;;;21.00;62.80;;;;;;4181430;28;20011;-86
2023/09/28 11:18:37;;;;;;;;;;;21.00;63.40;;;;;;4166729;28;19917;-85
2023/09/28 11:20:58;;;;;;;;;;;21.00;63.00;;;;;;4169262;28;19916;-86
2023/09/28 11:23:19;;;;;;;;;;;21.10;62.60;;;;;;4172191;28;20033;-86
2023/09/28 11:31:50;;;;;;;;;;;21.20;63.50;;;;;;4119540;28;20244;-86
2023/09/28 11:34:11;;;;;;;;;;;21.20;62.60;;;;;;4139114;28;19946;-86
2023/09/28 11:36:32;;;;;;;;;;;21.30;63.00;;;;;;4524469;22;19990;-86
2023/09/28 11:38:32;;;;;;;;;;;21.30;62.30;;;;;;4203810;28;19924;-86
2023/09/28 11:40:33;;;;;;;;;;;21.30;61.50;;;;;;4187587;28;20377;-87
2023/09/28 11:42:37;;;;;;;;;;;21.40;61.90;;;;;;4188748;28;19955;-88
2023/09/28 11:47:39;;;;;;;;;;;21.50;60.50;;;;;;4173001;28;19939;-87
2023/09/28 11:49:43;;;;;;;;;;;21.50;59.70;;;;;;4183676;28;19921;-87
2023/09/28 11:51:44;;;;;;;;;;;21.40;58.10;;;;;;4183043;28;19917;-87
2023/09/28 11:53:44;;;;;;;;;;;21.40;58.20;;;;;;4167968;28;19959;-87
2023/09/28 11:55:45;;;;;;;;;;;21.50;58.80;;;;;;4182717;28;20328;-87
2023/09/28 11:57:46;;;;;;;;;;;21.50;58.90;;;;;;4166590;28;19921;-86
2023/09/28 11:59:47;;;;;;;;;;;21.50;58.60;;;;;;4168581;28;20124;-87
2023/09/28 12:01:55;;;;;;;;;;;21.40;58.70;;;;;;4167043;28;19916;-86
2023/09/28 12:04:18;;;;;;;;;;;21.40;59.40;;;;;;4178704;28;19924;-87
2023/09/28 12:06:39;;;;;;;;;;;21.40;59.10;;;;;;4185684;28;19917;-87
2023/09/28 12:08:41;;;;;;;;;;;21.50;59.30;;;;;;4202458;28;20431;-87
2023/09/28 12:11:31;;;;;;;;;;;21.40;59.50;;;;;;4185892;28;19923;-88
2023/09/28 12:13:52;;;;;;;;;;;21.40;58.70;;;;;;4170513;28;19986;-86
2023/09/28 12:16:41;;;;;;;;;;;;;;;;;;;;;
2023/09/28 12:19:18;;;;;;;;;;;21.40;59.10;;;;;;4182798;28;19920;-86
2023/09/28 12:21:39;;;;;;;;;;;21.30;59.60;;;;;;4169001;28;20397;-88
2023/09/28 12:24:00;;;;;;;;;;;21.30;59.90;;;;;;4183950;28;19970;-86
2023/09/28 12:26:21;;;;;;;;;;;21.30;60.30;;;;;;4182471;28;19998;-86
2023/09/28 12:28:47;;;;;;;;;;;21.30;60.50;;;;;;4172111;28;19916;-87
2023/09/28 12:30:48;;;;;;;;;;;21.40;60.30;;;;;;4166664;28;19998;-88
2023/09/28 12:32:51;;;;;;;;;;;21.30;60.10;;;;;;4169192;28;19917;-87
2023/09/28 12:35:11;;;;;;;;;;;21.30;59.80;;;;;;4185962;28;19963;-86
2023/09/28 12:37:28;;;;;;;;;;;21.30;60.30;;;;;;4154340;28;19917;-86
2023/09/28 12:39:53;;;;;;;;;;;21.30;59.80;;;;;;4170404;28;19921;-86
2023/09/28 12:42:15;;;;;;;;;;;21.30;59.60;;;;;;4182899;28;19971;-88
2023/09/28 12:45:06;;;;;;;;;;;21.20;59.90;;;;;;4186417;28;19968;-87
2023/09/28 12:47:36;;;;;;;;;;;21.20;60.30;;;;;;4171845;28;19967;-88
2023/09/28 12:49:59;;;;;;;;;;;21.20;60.40;;;;;;4166421;28;19913;-87
2023/09/28 12:52:41;;;;;;;;;;;21.10;60.70;;;;;;4181873;28;19923;-87
2023/09/28 12:55:03;;;;;;;;;;;21.10;60.60;;;;;;4175928;28;20027;-88
2023/09/28 12:57:24;;;;;;;;;;;21.10;61.00;;;;;;4179933;28;19924;-87
2023/09/28 12:59:34;;;;;;;;;;;21.00;60.90;;;;;;4186824;28;19920;-87
2023/09/28 13:01:35;;;;;;;;;;;21.10;61.00;;;;;;4167804;28;20007;-88
2023/09/28 13:03:36;;;;;;;;;;;21.00;61.00;;;;;;4182034;28;19917;-87
2023/09/28 13:15:15;;;;;;;;;;;21.00;60.80;;;;;;3479033;26;19936;-87
2023/09/28 13:20:26;;;;;;;;;;;21.00;60.70;;;;;;4150675;28;20338;-89
2023/09/28 13:22:29;;;;;;;;;;;21.00;61.00;;;;;;4152413;28;20039;-86
2023/09/28 13:24:50;;;;;;;;;;;20.90;60.50;;;;;;4146996;28;19924;-87
2023/09/28 13:27:12;;;;;;;;;;;20.90;60.40;;;;;;4150370;28;19928;-87
2023/09/28 13:30:03;;;;;;;;;;;20.90;60.20;;;;;;4200461;22;19933;-87
2023/09/28 13:33:02;;;;;;;;;;;20.90;60.00;;;;;;4134782;28;20089;-87
2023/09/28 13:38:24;;;;;;;;;;;20.90;60.60;;;;;;4376386;22;19926;-87
2023/09/28 13:43:45;;;;;;;;;;;20.80;61.00;;;;;;4118779;28;24543;-88
2023/09/28 13:46:07;;;;;;;;;;;20.80;61.10;;;;;;4120548;28;20028;-87
2023/09/28 13:48:28;;;;;;;;;;;20.80;60.70;;;;;;4119096;28;19922;-87
2023/09/28 13:50:48;;;;;;;;;;;20.80;60.90;;;;;;4138814;28;19917;-87
2023/09/28 13:53:22;;;;;;;;;;;20.80;60.30;;;;;;4119525;28;19979;-87
2023/09/28 13:55:42;;;;;;;;;;;20.70;60.10;;;;;;4116314;28;20401;-87
2023/09/28 13:58:03;;;;;;;;;;;20.70;60.50;;;;;;4124547;28;19926;-88
2023/09/28 14:00:39;;;;;;;;;;;20.70;59.90;;;;;;4124222;28;19924;-92
2023/09/28 14:03:00;;;;;;;;;;;20.80;59.90;;;;;;4120383;28;19917;-87
2023/09/28 14:05:24;;;;;;;;;;;20.70;60.10;;;;;;4135361;28;19922;-87
2023/09/28 14:07:40;;;;;;;;;;;20.70;59.90;;;;;;4124815;28;19914;-87
2023/09/28 14:10:13;;;;;;;;;;;20.70;60.30;;;;;;4122023;28;19936;-87
2023/09/28 14:12:45;;;;;;;;;;;20.60;59.90;;;;;;4107860;28;19940;-87
2023/09/28 14:15:20;;;;;;;;;;;20.60;60.00;;;;;;4123707;28;19928;-88
2023/09/28 14:17:53;;;;;;;;;;;20.60;59.70;;;;;;4121771;28;19921;-87
2023/09/28 14:22:47;;;;;;;;;;;20.50;59.60;;;;;;4224949;22;19986;-89
2023/09/28 14:25:36;;;;;;;;;;;20.50;59.80;;;;;;4170589;28;19917;-88
2023/09/28 14:27:57;;;;;;;;;;;20.40;59.60;;;;;;4172630;28;20307;-87
2023/09/28 14:30:17;;;;;;;;;;;20.40;59.70;;;;;;4168563;28;20310;-88
2023/09/28 14:32:41;;;;;;;;;;;20.40;59.90;;;;;;4167295;28;20909;-88
2023/09/28 14:35:02;;;;;;;;;;;20.40;60.00;;;;;;4166732;28;20406;-87